ADDS TAF Data INFO
IDs: Format: Raw Decoded Include METARs

Data at: 0533 UTC 21 Apr 2018

KLWB 210515Z AUTO 00000KT 10SM CLR 02/M05 A3040 RMK AO2 T00161047

KLWB 210520Z 2106/2206 00000KT P6SM SKC
  FM211500 22003KT P6SM FEW200